Time;durP1;ratioP1;P1;durP2;ratioP2;P2;SDS_P1;SDS_P2;PMS_P1;PMS_P2;Temp;Humidity;BMP_temperature;BMP_pressure;BME280_temperature;BME280_humidity;BME280_pressure;Samples;Min_cycle;Max_cycle;Signal;HPM_P1;HPM_P2
2021/09/28 00:02:15;;;;;;;8.77;7.60;;;18.80;99.90;;;;;;6274440;22;20026;-78
2021/09/28 00:04:41;;;;;;;8.88;7.70;;;18.80;99.90;;;;;;6301607;22;19998;-78
2021/09/28 00:07:06;;;;;;;10.60;7.78;;;18.80;99.90;;;;;;6302343;22;20334;-78
2021/09/28 00:09:32;;;;;;;9.23;7.22;;;18.80;99.90;;;;;;6300417;22;19999;-78
2021/09/28 00:11:57;;;;;;;9.73;6.95;;;18.80;99.90;;;;;;6300806;22;20564;-78
2021/09/28 00:14:24;;;;;;;10.88;8.38;;;18.80;99.90;;;;;;6301676;22;20027;-78
2021/09/28 00:16:50;;;;;;;10.07;7.15;;;18.80;99.90;;;;;;6301459;22;20026;-79
2021/09/28 00:19:16;;;;;;;8.88;6.75;;;18.80;99.90;;;;;;6300829;22;19999;-78
2021/09/28 00:21:42;;;;;;;9.60;7.88;;;18.80;99.90;;;;;;6299968;22;20325;-77
2021/09/28 00:24:08;;;;;;;8.32;7.18;;;18.80;99.90;;;;;;6301381;22;20601;-77
2021/09/28 00:26:34;;;;;;;10.63;7.85;;;18.80;99.90;;;;;;6301832;22;20015;-77
2021/09/28 00:28:59;;;;;;;8.60;7.15;;;18.80;99.90;;;;;;6299566;22;20080;-77
2021/09/28 00:31:25;;;;;;;11.35;7.32;;;18.80;99.90;;;;;;6301368;22;20008;-77
2021/09/28 00:33:50;;;;;;;10.80;6.88;;;18.80;99.90;;;;;;6301745;22;20053;-77
2021/09/28 00:36:16;;;;;;;12.27;7.57;;;18.70;99.90;;;;;;6301469;22;20011;-77
2021/09/28 00:38:41;;;;;;;9.57;7.85;;;18.70;99.90;;;;;;6301553;22;19996;-77
2021/09/28 00:41:07;;;;;;;10.05;7.85;;;18.70;99.90;;;;;;6300892;22;20007;-77
2021/09/28 00:43:54;;;;;;;9.40;7.57;;;18.70;99.90;;;;;;6301649;22;20004;-77
2021/09/28 00:46:20;;;;;;;12.30;8.43;;;18.60;99.90;;;;;;6301408;22;20041;-76
2021/09/28 00:48:47;;;;;;;11.43;9.07;;;18.60;99.90;;;;;;6300827;22;20008;-77
2021/09/28 00:51:14;;;;;;;8.98;7.43;;;18.60;99.90;;;;;;6302002;22;19996;-77
2021/09/28 00:53:40;;;;;;;10.02;8.13;;;18.60;99.90;;;;;;6301288;22;20061;-77
2021/09/28 00:56:08;;;;;;;10.77;8.20;;;18.60;99.90;;;;;;6301712;22;20345;-77
2021/09/28 00:58:34;;;;;;;9.82;8.55;;;18.60;99.90;;;;;;6301419;22;20034;-78
2021/09/28 01:01:02;;;;;;;10.27;8.02;;;18.60;99.90;;;;;;6300330;22;20158;-77
2021/09/28 01:03:28;;;;;;;9.23;7.97;;;18.60;99.90;;;;;;6302379;22;20061;-77
2021/09/28 01:05:54;;;;;;;8.52;7.07;;;18.70;99.90;;;;;;6301530;22;20004;-77
2021/09/28 01:08:19;;;;;;;9.48;8.25;;;18.70;99.90;;;;;;6300440;22;20322;-78
2021/09/28 01:10:45;;;;;;;9.93;7.50;;;18.70;99.90;;;;;;6301873;22;20003;-78
2021/09/28 01:13:11;;;;;;;10.30;7.80;;;18.70;99.90;;;;;;6301982;22;20056;-77
2021/09/28 01:15:36;;;;;;;12.85;7.80;;;18.60;99.90;;;;;;6301508;22;20003;-79
2021/09/28 01:18:03;;;;;;;8.88;6.80;;;18.60;99.90;;;;;;6273438;22;20430;-78
2021/09/28 01:20:29;;;;;;;8.88;6.78;;;18.60;99.90;;;;;;6300762;22;20370;-78
2021/09/28 01:22:54;;;;;;;11.45;7.93;;;18.50;99.90;;;;;;6301754;22;20034;-79
2021/09/28 01:25:20;;;;;;;9.30;7.55;;;18.60;99.90;;;;;;6301404;22;20079;-79
2021/09/28 01:27:45;;;;;;;9.23;7.07;;;18.60;99.90;;;;;;6300721;22;20042;-80
2021/09/28 01:30:11;;;;;;;14.32;9.43;;;18.50;99.90;;;;;;6299946;22;20483;-77
2021/09/28 01:32:38;;;;;;;9.63;7.80;;;18.50;99.90;;;;;;6301392;22;20003;-77
2021/09/28 01:35:06;;;;;;;13.30;8.27;;;18.50;99.90;;;;;;6300555;22;20334;-78
2021/09/28 01:37:31;;;;;;;10.93;7.85;;;18.50;99.90;;;;;;6301322;22;20003;-77
2021/09/28 01:39:57;;;;;;;10.52;8.20;;;18.40;99.90;;;;;;6300881;22;20006;-78
2021/09/28 01:42:22;;;;;;;11.63;7.70;;;18.40;99.90;;;;;;6300826;22;20007;-77
2021/09/28 01:44:48;;;;;;;11.88;9.00;;;18.40;99.90;;;;;;6301579;22;20009;-78
2021/09/28 01:47:13;;;;;;;10.65;8.30;;;18.40;99.90;;;;;;6302946;22;20321;-77
2021/09/28 01:49:39;;;;;;;11.57;7.57;;;18.40;99.90;;;;;;6303394;22;19995;-80
2021/09/28 01:52:05;;;;;;;11.80;7.53;;;18.40;99.90;;;;;;6303355;22;20005;-77
2021/09/28 01:54:30;;;;;;;4.55;3.65;;;18.30;99.90;;;;;;6302645;22;20510;-78
2021/09/28 01:56:56;;;;;;;2.70;2.35;;;18.10;99.90;;;;;;6302750;22;20026;-78
2021/09/28 01:59:21;;;;;;;3.85;1.23;;;17.90;99.90;;;;;;6301864;22;20037;-78
2021/09/28 02:01:46;;;;;;;2.53;1.20;;;17.70;99.80;;;;;;6302666;22;19996;-79
2021/09/28 02:04:13;;;;;;;2.22;1.00;;;17.60;99.90;;;;;;6303864;22;20384;-77
2021/09/28 02:06:39;;;;;;;3.42;1.48;;;17.40;99.60;;;;;;6302423;22;20007;-77
2021/09/28 02:09:08;;;;;;;1.95;0.65;;;17.30;99.60;;;;;;6301974;22;19996;-77
2021/09/28 02:11:35;;;;;;;1.98;0.70;;;17.20;99.60;;;;;;6303095;22;19999;-77
2021/09/28 02:14:02;;;;;;;0.60;0.55;;;17.00;99.90;;;;;;6302712;22;20007;-78
2021/09/28 02:16:27;;;;;;;3.03;0.57;;;17.00;99.60;;;;;;6302619;22;20002;-78
2021/09/28 02:18:53;;;;;;;2.45;1.00;;;16.90;99.50;;;;;;6301979;22;20003;-78
2021/09/28 02:21:18;;;;;;;0.85;0.68;;;16.80;99.40;;;;;;6275270;22;20013;-78
2021/09/28 02:23:44;;;;;;;2.30;0.80;;;16.70;99.80;;;;;;6302963;22;20011;-78
2021/09/28 02:26:09;;;;;;;1.85;0.63;;;16.70;99.60;;;;;;6302395;22;20008;-78
2021/09/28 02:28:35;;;;;;;3.40;0.52;;;16.70;99.50;;;;;;6302002;22;19998;-77
2021/09/28 02:31:01;;;;;;;3.05;0.80;;;16.70;99.60;;;;;;6275273;22;20418;-77
2021/09/28 02:33:27;;;;;;;0.88;0.80;;;16.60;99.40;;;;;;6302291;22;20445;-76
2021/09/28 02:35:53;;;;;;;1.75;0.60;;;16.50;99.60;;;;;;6303059;22;20071;-79
2021/09/28 02:38:18;;;;;;;2.13;0.70;;;16.50;99.50;;;;;;6300931;22;20023;-78
2021/09/28 02:40:44;;;;;;;1.50;0.40;;;16.50;99.60;;;;;;6302515;22;20070;-78
2021/09/28 02:43:09;;;;;;;0.90;0.60;;;16.50;99.60;;;;;;6303061;22;20020;-78
2021/09/28 02:45:35;;;;;;;1.77;0.80;;;16.50;99.60;;;;;;6302537;22;20034;-78
2021/09/28 02:48:01;;;;;;;1.98;0.70;;;16.50;99.70;;;;;;6302204;22;20003;-78
2021/09/28 02:50:26;;;;;;;3.08;1.20;;;16.50;99.70;;;;;;6303236;22;20295;-79
2021/09/28 02:52:52;;;;;;;1.45;0.80;;;16.50;99.60;;;;;;6301113;22;20303;-78
2021/09/28 02:55:18;;;;;;;2.47;0.60;;;16.40;99.80;;;;;;6302889;22;20045;-78
2021/09/28 02:57:43;;;;;;;1.70;0.80;;;16.50;99.80;;;;;;6301060;22;19999;-77
2021/09/28 03:00:09;;;;;;;1.63;0.77;;;16.40;99.80;;;;;;6302947;22;20330;-76
2021/09/28 03:02:35;;;;;;;0.93;0.80;;;16.30;99.90;;;;;;6302553;22;20011;-78
2021/09/28 03:05:01;;;;;;;1.17;0.80;;;16.30;99.90;;;;;;6302164;22;20382;-79
2021/09/28 03:07:26;;;;;;;1.00;0.68;;;16.30;99.90;;;;;;6302984;22;20062;-77
2021/09/28 03:09:52;;;;;;;1.58;1.00;;;16.30;99.90;;;;;;6301213;22;19999;-79
2021/09/28 03:12:17;;;;;;;1.55;1.00;;;16.30;99.90;;;;;;6300976;22;20091;-78
2021/09/28 03:14:43;;;;;;;1.25;0.80;;;16.20;99.90;;;;;;6302678;22;20010;-78
2021/09/28 03:17:08;;;;;;;1.58;0.85;;;16.20;99.90;;;;;;6302014;22;20683;-78
2021/09/28 03:19:34;;;;;;;5.15;1.15;;;16.30;99.90;;;;;;6302143;22;19995;-79
2021/09/28 03:21:59;;;;;;;3.05;1.00;;;16.30;99.90;;;;;;6301170;22;20322;-78
2021/09/28 03:24:25;;;;;;;1.40;0.70;;;16.30;99.90;;;;;;6302456;22;20425;-78
2021/09/28 03:26:50;;;;;;;5.35;1.13;;;16.30;99.90;;;;;;6301795;22;20011;-79
2021/09/28 03:29:16;;;;;;;3.70;1.10;;;16.30;99.90;;;;;;6301053;22;20000;-78
2021/09/28 03:31:41;;;;;;;3.75;1.15;;;16.40;99.90;;;;;;6302341;22;20418;-79
2021/09/28 03:34:07;;;;;;;1.10;0.80;;;16.30;99.90;;;;;;6303277;22;20010;-78
2021/09/28 03:36:33;;;;;;;3.58;1.30;;;16.30;99.90;;;;;;6302387;22;20025;-78
2021/09/28 03:38:58;;;;;;;2.45;1.23;;;16.20;99.90;;;;;;6302293;22;20448;-78
2021/09/28 03:41:24;;;;;;;3.20;1.30;;;16.10;99.90;;;;;;6302099;22;20000;-79
2021/09/28 03:43:49;;;;;;;1.85;1.33;;;16.20;99.90;;;;;;6302876;22;20086;-79
2021/09/28 03:46:15;;;;;;;3.75;1.73;;;16.20;99.90;;;;;;6303272;22;19999;-79
2021/09/28 03:48:40;;;;;;;3.55;1.50;;;16.20;99.90;;;;;;6301557;22;20015;-78
2021/09/28 03:51:07;;;;;;;4.18;1.80;;;16.20;99.90;;;;;;6275004;22;20007;-79
2021/09/28 03:53:33;;;;;;;2.85;1.80;;;16.20;99.90;;;;;;6302363;22;20110;-79
2021/09/28 03:55:58;;;;;;;4.65;2.40;;;16.20;99.90;;;;;;6302549;22;20534;-78
2021/09/28 03:58:24;;;;;;;5.90;2.70;;;16.30;99.90;;;;;;6301687;22;20034;-78
2021/09/28 04:00:49;;;;;;;8.40;3.28;;;16.20;99.90;;;;;;6301393;22;20367;-79
2021/09/28 04:03:15;;;;;;;5.38;3.05;;;16.20;99.90;;;;;;6302537;22;20654;-79
2021/09/28 04:05:40;;;;;;;5.35;2.58;;;16.20;99.90;;;;;;6275416;22;20000;-79
2021/09/28 04:08:07;;;;;;;4.35;2.85;;;16.20;99.90;;;;;;6301219;22;20006;-79
2021/09/28 04:10:37;;;;;;;7.10;2.85;;;16.20;99.90;;;;;;6302189;22;20025;-79
2021/09/28 04:13:08;;;;;;;2.92;2.15;;;16.20;99.90;;;;;;6302047;22;20003;-78
2021/09/28 04:15:40;;;;;;;5.25;2.53;;;16.20;99.90;;;;;;6302306;22;20071;-78
2021/09/28 04:18:12;;;;;;;5.38;2.53;;;16.20;99.90;;;;;;6301583;22;20287;-78
2021/09/28 04:20:40;;;;;;;4.75;2.58;;;16.20;99.90;;;;;;6301461;22;20630;-78
2021/09/28 04:23:07;;;;;;;3.90;2.08;;;16.20;99.90;;;;;;6302297;22;20011;-79
2021/09/28 04:25:32;;;;;;;6.32;3.20;;;16.20;99.90;;;;;;6302055;22;20676;-79
2021/09/28 04:27:58;;;;;;;6.07;2.58;;;16.20;99.90;;;;;;6301568;22;20056;-78
2021/09/28 04:30:24;;;;;;;7.38;3.20;;;16.20;99.90;;;;;;6275704;22;20035;-77
2021/09/28 04:32:50;;;;;;;6.43;3.40;;;16.20;99.90;;;;;;6291867;22;20447;-79
2021/09/28 04:35:16;;;;;;;5.88;3.33;;;16.20;99.90;;;;;;6294192;22;20451;-79
2021/09/28 04:37:42;;;;;;;6.25;3.33;;;16.20;99.90;;;;;;6298298;22;20079;-79
2021/09/28 04:40:08;;;;;;;3.38;2.80;;;16.10;99.90;;;;;;6272089;22;20003;-79
2021/09/28 04:42:33;;;;;;;2.80;1.52;;;16.00;99.90;;;;;;6300556;22;20007;-79
2021/09/28 04:44:59;;;;;;;3.50;1.75;;;16.00;99.90;;;;;;6298389;22;20015;-78
2021/09/28 04:47:24;;;;;;;4.63;1.67;;;15.90;99.90;;;;;;6298493;22;19995;-79
2021/09/28 04:49:50;;;;;;;3.05;1.45;;;15.90;99.90;;;;;;6298231;22;20084;-78
2021/09/28 04:52:16;;;;;;;4.20;1.73;;;15.90;99.90;;;;;;6297522;22;20031;-78
2021/09/28 04:54:42;;;;;;;3.67;1.27;;;15.90;99.90;;;;;;6298489;22;19999;-79
2021/09/28 04:57:07;;;;;;;3.85;1.52;;;15.90;99.90;;;;;;6298290;22;20083;-79
2021/09/28 04:59:33;;;;;;;2.38;1.63;;;15.90;99.90;;;;;;6297054;22;20011;-79
2021/09/28 05:01:59;;;;;;;2.05;1.20;;;15.80;99.90;;;;;;6299100;22;19999;-79
2021/09/28 05:04:24;;;;;;;4.82;1.30;;;15.80;99.90;;;;;;6296054;22;20007;-78
2021/09/28 05:06:50;;;;;;;2.17;1.40;;;15.70;99.90;;;;;;6297751;22;20544;-79
2021/09/28 05:09:15;;;;;;;3.15;1.23;;;15.60;99.90;;;;;;6297243;22;20003;-77
2021/09/28 05:11:41;;;;;;;5.20;1.95;;;15.60;99.90;;;;;;6296467;22;20050;-76
2021/09/28 05:14:06;;;;;;;3.20;1.50;;;15.60;99.90;;;;;;6297034;22;20007;-77
2021/09/28 05:16:32;;;;;;;2.00;1.55;;;15.60;99.90;;;;;;6297072;22;20006;-78
2021/09/28 05:18:57;;;;;;;3.05;1.25;;;15.70;99.90;;;;;;6295231;22;20070;-79
2021/09/28 05:21:23;;;;;;;3.17;1.15;;;15.60;99.90;;;;;;6269563;22;20042;-78
2021/09/28 05:23:49;;;;;;;3.60;1.33;;;15.60;99.90;;;;;;6299713;22;20003;-77
2021/09/28 05:26:15;;;;;;;3.40;1.13;;;15.60;99.90;;;;;;6297956;22;20018;-80
2021/09/28 05:28:41;;;;;;;4.90;1.40;;;15.60;99.90;;;;;;6298324;22;20310;-79
2021/09/28 05:31:07;;;;;;;3.45;1.65;;;15.60;99.90;;;;;;6296649;22;20000;-79
2021/09/28 05:33:33;;;;;;;2.15;1.42;;;15.60;99.90;;;;;;6298857;22;20105;-78
2021/09/28 05:35:58;;;;;;;3.65;2.03;;;15.70;99.90;;;;;;6300482;22;20121;-79
2021/09/28 05:38:25;;;;;;;2.95;2.00;;;15.60;99.90;;;;;;6299195;22;20003;-78
2021/09/28 05:40:50;;;;;;;3.97;2.58;;;15.60;99.90;;;;;;6300522;22;19999;-78
2021/09/28 05:43:16;;;;;;;4.38;2.47;;;15.60;99.90;;;;;;6300056;22;20026;-78
2021/09/28 05:45:41;;;;;;;5.07;2.60;;;15.60;99.90;;;;;;6299975;22;20011;-78
2021/09/28 05:48:07;;;;;;;5.88;2.17;;;15.60;99.90;;;;;;6300562;22;20525;-78
2021/09/28 05:50:34;;;;;;;6.53;3.13;;;15.60;99.90;;;;;;6300997;22;20138;-78
2021/09/28 05:53:06;;;;;;;5.25;2.45;;;15.50;99.90;;;;;;6300983;22;20023;-79
2021/09/28 05:55:31;;;;;;;5.97;2.70;;;15.60;99.90;;;;;;6301141;22;20031;-79
2021/09/28 05:57:57;;;;;;;4.68;3.05;;;15.60;99.90;;;;;;6300441;22;20429;-77
2021/09/28 06:00:22;;;;;;;5.43;3.63;;;15.60;99.90;;;;;;6273698;22;20014;-78
2021/09/28 06:02:48;;;;;;;6.55;3.25;;;15.60;99.90;;;;;;6300550;22;20003;-78
2021/09/28 06:05:13;;;;;;;6.05;2.97;;;15.70;99.90;;;;;;6300771;22;20320;-78
2021/09/28 06:07:40;;;;;;;7.35;3.50;;;15.70;99.90;;;;;;6273169;22;20368;-79
2021/09/28 06:10:06;;;;;;;5.22;3.47;;;15.70;99.90;;;;;;6300384;22;20007;-79
2021/09/28 06:12:31;;;;;;;5.93;3.17;;;15.70;99.90;;;;;;6301229;22;20357;-77
2021/09/28 06:14:57;;;;;;;7.20;3.65;;;15.60;99.90;;;;;;6300588;22;20041;-77
2021/09/28 06:17:22;;;;;;;5.22;3.63;;;15.70;99.90;;;;;;6300255;22;19999;-77
2021/09/28 06:19:48;;;;;;;6.07;3.90;;;15.70;99.90;;;;;;6300330;22;20095;-76
2021/09/28 06:22:13;;;;;;;5.60;4.30;;;15.70;99.90;;;;;;6301011;22;20004;-77
2021/09/28 06:24:39;;;;;;;6.07;3.75;;;15.70;99.90;;;;;;6301353;22;20003;-77
2021/09/28 06:27:06;;;;;;;5.35;4.20;;;15.80;99.90;;;;;;6300473;22;20007;-76
2021/09/28 06:29:32;;;;;;;7.47;3.95;;;15.70;99.90;;;;;;6300119;22;20026;-78
2021/09/28 06:31:58;;;;;;;8.68;4.75;;;15.80;99.90;;;;;;6300718;22;20074;-78
2021/09/28 06:34:24;;;;;;;14.05;4.57;;;15.80;99.90;;;;;;6300562;22;19999;-78
2021/09/28 06:36:50;;;;;;;5.80;4.97;;;15.90;99.90;;;;;;6300238;22;20115;-78
2021/09/28 06:39:15;;;;;;;4.97;4.38;;;15.80;99.90;;;;;;6299839;22;20702;-77
2021/09/28 06:41:41;;;;;;;4.90;4.30;;;15.80;99.90;;;;;;6300733;22;20003;-80
2021/09/28 06:44:06;;;;;;;8.60;5.07;;;15.90;99.90;;;;;;6272859;22;20016;-77
2021/09/28 06:46:33;;;;;;;7.03;4.80;;;15.80;99.90;;;;;;6300020;22;19999;-77
2021/09/28 06:48:58;;;;;;;11.35;4.75;;;15.80;99.90;;;;;;6300322;22;20152;-77
2021/09/28 06:51:24;;;;;;;6.47;4.85;;;15.90;99.90;;;;;;6299848;22;20418;-77
2021/09/28 06:53:49;;;;;;;8.70;5.47;;;16.00;99.90;;;;;;6300320;22;20003;-77
2021/09/28 06:56:16;;;;;;;7.50;5.28;;;16.00;99.90;;;;;;6301182;22;20078;-78
2021/09/28 06:58:42;;;;;;;7.32;5.07;;;16.00;99.90;;;;;;6300184;22;19999;-78
2021/09/28 07:01:08;;;;;;;6.72;4.72;;;16.00;99.90;;;;;;6300548;22;20061;-78
2021/09/28 07:03:34;;;;;;;6.88;5.00;;;16.00;99.90;;;;;;6300248;22;20010;-79
2021/09/28 07:06:01;;;;;;;9.57;5.03;;;16.00;99.90;;;;;;6301232;22;20010;-79
2021/09/28 07:08:26;;;;;;;6.15;4.88;;;16.10;99.90;;;;;;6300095;22;20398;-78
2021/09/28 07:10:52;;;;;;;8.23;4.00;;;16.10;99.90;;;;;;6300367;22;20006;-79
2021/09/28 07:13:17;;;;;;;8.77;4.18;;;16.10;99.90;;;;;;6301061;22;20018;-78
2021/09/28 07:15:43;;;;;;;4.97;4.03;;;16.20;99.90;;;;;;6300623;22;20007;-78
2021/09/28 07:18:09;;;;;;;5.80;3.20;;;16.20;99.90;;;;;;6300363;22;20303;-79
2021/09/28 07:20:36;;;;;;;4.03;3.15;;;16.20;99.90;;;;;;6299133;22;20310;-79
2021/09/28 07:23:02;;;;;;;6.70;2.78;;;16.20;99.90;;;;;;6298443;22;20007;-77
2021/09/28 07:25:27;;;;;;;4.70;2.58;;;16.20;99.90;;;;;;6300700;22;20082;-77
2021/09/28 07:27:58;;;;;;;4.03;1.98;;;16.10;99.90;;;;;;6298005;22;20014;-77
2021/09/28 07:30:24;;;;;;;10.20;2.70;;;16.00;99.90;;;;;;6273326;22;20010;-78
2021/09/28 07:32:50;;;;;;;7.90;2.03;;;16.00;99.90;;;;;;6297674;22;20003;-77
2021/09/28 07:35:15;;;;;;;4.72;2.30;;;15.90;99.90;;;;;;6300385;22;20649;-78
2021/09/28 07:37:41;;;;;;;6.13;3.00;;;15.80;99.90;;;;;;6299665;22;20010;-77
2021/09/28 07:40:06;;;;;;;6.70;3.00;;;15.90;99.90;;;;;;6300374;22;20003;-76
2021/09/28 07:42:32;;;;;;;9.95;3.35;;;15.90;99.90;;;;;;6299981;22;20070;-77
2021/09/28 07:45:00;;;;;;;5.72;3.35;;;15.90;99.90;;;;;;6299689;22;20330;-78
2021/09/28 07:47:26;;;;;;;8.52;4.22;;;15.90;99.90;;;;;;6300297;22;20003;-78
2021/09/28 07:49:51;;;;;;;11.57;4.07;;;15.90;99.90;;;;;;6299718;22;20086;-76
2021/09/28 07:52:17;;;;;;;3.50;2.83;;;15.90;99.90;;;;;;6299072;22;20056;-78
2021/09/28 07:54:42;;;;;;;4.20;2.35;;;15.90;99.90;;;;;;6298376;22;20334;-77
2021/09/28 07:57:08;;;;;;;2.83;2.42;;;15.90;99.90;;;;;;6299954;22;20114;-78
2021/09/28 07:59:35;;;;;;;6.72;3.42;;;15.90;99.90;;;;;;6271701;22;20018;-76
2021/09/28 08:02:00;;;;;;;5.95;3.00;;;16.00;99.90;;;;;;6299602;22;20385;-78
2021/09/28 08:04:26;;;;;;;6.28;3.63;;;15.90;99.90;;;;;;6271782;22;20068;-77
2021/09/28 08:06:53;;;;;;;7.15;3.05;;;15.90;99.90;;;;;;6299973;22;20010;-77
2021/09/28 08:09:18;;;;;;;4.53;3.72;;;15.90;99.90;;;;;;6299625;22;20036;-77
2021/09/28 08:11:44;;;;;;;6.30;3.70;;;15.90;99.90;;;;;;6272657;22;19995;-76
2021/09/28 08:14:09;;;;;;;10.52;4.45;;;16.00;99.90;;;;;;6299667;22;20023;-78
2021/09/28 08:16:35;;;;;;;9.77;4.05;;;16.00;99.90;;;;;;6271866;22;20086;-76
2021/09/28 08:19:04;;;;;;;5.93;3.85;;;16.00;99.90;;;;;;6299342;22;20019;-77
2021/09/28 08:21:31;;;;;;;7.80;3.58;;;16.00;99.90;;;;;;6300090;22;20070;-80
2021/09/28 08:23:56;;;;;;;3.70;2.80;;;16.00;99.90;;;;;;6299893;22;20011;-78
2021/09/28 08:29:10;;;;;;;6.57;3.00;;;16.10;99.90;;;;;;6299019;22;20091;-77
2021/09/28 08:31:44;;;;;;;9.18;3.92;;;16.10;99.90;;;;;;6300545;22;20084;-78
2021/09/28 08:34:11;;;;;;;7.85;3.47;;;16.20;99.90;;;;;;6299460;22;20049;-77
2021/09/28 08:36:37;;;;;;;5.55;4.53;;;16.30;99.90;;;;;;6299178;22;19995;-77
2021/09/28 08:39:12;;;;;;;5.85;3.90;;;16.30;99.90;;;;;;6299187;22;20360;-77
2021/09/28 08:41:39;;;;;;;5.57;4.45;;;16.40;99.90;;;;;;6300086;22;20499;-78
2021/09/28 08:44:05;;;;;;;8.25;5.05;;;16.50;99.90;;;;;;6299978;22;20015;-78
2021/09/28 08:46:31;;;;;;;9.20;5.38;;;16.50;99.90;;;;;;6299071;22;20342;-78
2021/09/28 08:48:56;;;;;;;8.57;5.22;;;16.60;99.90;;;;;;6298942;22;20000;-77
2021/09/28 08:51:22;;;;;;;9.15;6.22;;;16.60;99.90;;;;;;6299762;22;20066;-79
2021/09/28 08:53:50;;;;;;;11.63;7.05;;;16.60;99.90;;;;;;6299254;22;20011;-77
2021/09/28 08:56:16;;;;;;;11.07;6.70;;;16.60;99.90;;;;;;6300968;22;20010;-76
2021/09/28 08:59:05;;;;;;;12.88;6.85;;;16.60;99.90;;;;;;6300398;22;20023;-78
2021/09/28 09:01:31;;;;;;;9.00;6.95;;;16.70;99.90;;;;;;6299594;22;19999;-77
2021/09/28 09:04:18;;;;;;;8.57;6.45;;;16.70;99.90;;;;;;6300898;22;20227;-78
2021/09/28 09:06:46;;;;;;;10.10;6.53;;;16.80;99.90;;;;;;6301286;22;20437;-78
2021/09/28 09:09:13;;;;;;;8.32;7.07;;;16.80;99.90;;;;;;6300346;22;20019;-78
2021/09/28 09:11:45;;;;;;;8.65;7.75;;;16.80;99.90;;;;;;6301296;22;20492;-78
2021/09/28 09:14:16;;;;;;;10.70;8.27;;;16.90;99.90;;;;;;6274693;22;20341;-78
2021/09/28 09:16:43;;;;;;;12.38;7.50;;;16.90;99.90;;;;;;6300802;22;20030;-78
2021/09/28 09:19:18;;;;;;;9.65;6.88;;;16.90;99.90;;;;;;6301346;22;19999;-77
2021/09/28 09:21:47;;;;;;;16.75;7.55;;;16.90;99.90;;;;;;6300982;22;19996;-79
2021/09/28 09:24:41;;;;;;;8.65;6.60;;;17.00;99.60;;;;;;6301824;22;20388;-79
2021/09/28 09:27:15;;;;;;;9.25;6.75;;;16.90;99.50;;;;;;6301939;22;20015;-79
2021/09/28 09:29:41;;;;;;;9.80;6.88;;;17.00;99.80;;;;;;6301084;22;20116;-79
2021/09/28 09:32:08;;;;;;;9.45;6.68;;;17.00;99.50;;;;;;6301523;22;20026;-78
2021/09/28 09:34:34;;;;;;;10.38;6.93;;;17.00;99.90;;;;;;6300804;22;20077;-78
2021/09/28 09:37:05;;;;;;;15.82;6.25;;;17.10;99.90;;;;;;6302081;22;19995;-78
2021/09/28 09:40:03;;;;;;;7.47;6.32;;;17.20;99.90;;;;;;6302701;22;19999;-79
2021/09/28 09:42:28;;;;;;;5.82;4.93;;;17.40;99.90;;;;;;6218105;22;20379;-79
2021/09/28 09:44:54;;;;;;;12.45;5.45;;;17.50;98.40;;;;;;6300675;22;20003;-78
2021/09/28 09:47:33;;;;;;;6.70;5.05;;;17.50;98.00;;;;;;6301007;22;20002;-78
2021/09/28 09:50:20;;;;;;;6.05;4.80;;;17.50;98.30;;;;;;6273400;22;20033;-78
2021/09/28 09:52:57;;;;;;;6.22;4.45;;;17.60;98.40;;;;;;6301740;22;20003;-78
2021/09/28 09:55:24;;;;;;;8.63;4.70;;;17.70;98.30;;;;;;6300872;22;20002;-78
2021/09/28 09:57:49;;;;;;;8.88;3.58;;;17.80;98.60;;;;;;6273017;22;20505;-79
2021/09/28 10:00:15;;;;;;;5.03;3.67;;;17.80;97.70;;;;;;6301605;22;19995;-78
2021/09/28 10:02:41;;;;;;;7.82;3.28;;;17.90;97.20;;;;;;6301575;22;20437;-78
2021/09/28 10:05:07;;;;;;;10.15;3.25;;;17.90;97.10;;;;;;6301004;22;20007;-78
2021/09/28 10:07:33;;;;;;;6.18;3.20;;;18.00;96.70;;;;;;6301051;22;19999;-78
2021/09/28 10:09:59;;;;;;;5.25;2.70;;;18.00;96.10;;;;;;6300667;22;20473;-79
2021/09/28 10:12:35;;;;;;;5.20;2.67;;;18.10;96.60;;;;;;6302148;22;20007;-78
2021/09/28 10:15:27;;;;;;;5.55;2.67;;;18.10;96.10;;;;;;6301065;22;19999;-79
2021/09/28 10:17:52;;;;;;;6.50;2.25;;;18.20;96.20;;;;;;6293446;22;20433;-79
2021/09/28 10:20:21;;;;;;;3.33;2.00;;;18.20;96.30;;;;;;6301572;22;20010;-80
2021/09/28 10:22:57;;;;;;;7.22;2.40;;;18.40;96.30;;;;;;6273771;22;20057;-79
2021/09/28 10:25:23;;;;;;;5.20;2.33;;;18.40;96.10;;;;;;6301071;22;20003;-77
2021/09/28 10:27:53;;;;;;;4.63;2.00;;;18.50;96.20;;;;;;6301039;22;20038;-79
2021/09/28 10:30:31;;;;;;;8.75;2.67;;;18.60;95.90;;;;;;6301157;22;19999;-77
2021/09/28 10:32:57;;;;;;;5.88;2.13;;;18.60;95.20;;;;;;6301140;22;20030;-77
2021/09/28 10:35:24;;;;;;;3.40;2.22;;;18.70;94.90;;;;;;6298593;22;20003;-79
2021/09/28 10:37:56;;;;;;;4.03;2.20;;;18.70;95.50;;;;;;6298915;22;20453;-78
2021/09/28 10:40:21;;;;;;;5.95;2.25;;;18.70;94.50;;;;;;6299878;22;20004;-77
2021/09/28 10:43:07;;;;;;;26.35;12.13;;;18.80;94.70;;;;;;6300580;22;20010;-74
2021/09/28 10:45:33;;;;;;;5.05;2.47;;;18.80;95.00;;;;;;6299290;22;20000;-75
2021/09/28 10:48:31;;;;;;;6.47;3.58;;;18.80;94.40;;;;;;6298421;22;20353;-75
2021/09/28 10:51:13;;;;;;;23.85;11.38;;;18.90;95.60;;;;;;6300646;22;20000;-75
2021/09/28 10:53:44;;;;;;;9.77;3.83;;;18.90;95.40;;;;;;6300172;22;19999;-76
2021/09/28 10:56:12;;;;;;;9.13;4.05;;;19.00;94.10;;;;;;6300724;22;20007;-76
2021/09/28 10:58:51;;;;;;;6.80;3.55;;;19.10;93.80;;;;;;6300661;22;20440;-76
2021/09/28 11:01:18;;;;;;;5.28;2.88;;;19.00;94.20;;;;;;6300929;22;20437;-78
2021/09/28 11:03:51;;;;;;;7.78;2.45;;;19.10;94.60;;;;;;6273252;22;20373;-77
2021/09/28 11:06:17;;;;;;;;;;;19.10;93.60;;;;;;6300692;22;20003;-77
2021/09/28 11:08:43;;;;;;;6.70;2.30;;;19.00;93.20;;;;;;6300011;22;19977;-78
2021/09/28 11:11:11;;;;;;;4.68;2.38;;;19.00;94.10;;;;;;6300868;22;20045;-79
2021/09/28 11:13:38;;;;;;;4.55;1.95;;;19.00;94.20;;;;;;6300504;22;20015;-79
2021/09/28 11:16:09;;;;;;;6.47;3.40;;;19.00;93.90;;;;;;6299036;22;20007;-78
2021/09/28 11:18:38;;;;;;;6.45;2.90;;;19.10;94.10;;;;;;6299204;22;20074;-78
2021/09/28 11:21:29;;;;;;;6.20;2.78;;;19.10;94.30;;;;;;6271355;22;20003;-78
2021/09/28 11:23:55;;;;;;;5.07;2.47;;;19.20;94.20;;;;;;6263657;22;20045;-78
2021/09/28 11:26:39;;;;;;;2.47;1.50;;;19.30;94.30;;;;;;6300406;22;20065;-78
2021/09/28 11:29:06;;;;;;;3.78;1.70;;;19.40;93.00;;;;;;6299316;22;20020;-78
2021/09/28 11:31:35;;;;;;;5.80;1.48;;;19.40;92.60;;;;;;6300540;22;20047;-78
2021/09/28 11:34:00;;;;;;;4.45;2.30;;;19.50;92.10;;;;;;6300004;22;20004;-77
2021/09/28 11:36:34;;;;;;;4.35;1.83;;;19.60;91.90;;;;;;6300220;22;20010;-78
2021/09/28 11:39:01;;;;;;;2.15;1.40;;;19.70;92.30;;;;;;6300054;22;20426;-78
2021/09/28 11:41:27;;;;;;;4.32;1.75;;;19.80;91.70;;;;;;6299044;22;20662;-78
2021/09/28 11:43:58;;;;;;;4.63;1.52;;;19.80;92.00;;;;;;6300470;22;19999;-76
2021/09/28 11:46:27;;;;;;;3.58;1.63;;;19.80;91.40;;;;;;6299494;22;20003;-79
2021/09/28 11:49:04;;;;;;;4.90;2.17;;;19.90;91.30;;;;;;6297995;22;20433;-77
2021/09/28 11:51:36;;;;;;;3.75;1.88;;;19.90;91.10;;;;;;6300802;22;20078;-77
2021/09/28 11:54:04;;;;;;;3.55;1.65;;;19.90;91.90;;;;;;6300481;22;20011;-77
2021/09/28 11:56:35;;;;;;;5.45;2.00;;;20.00;91.70;;;;;;6299033;22;20034;-77
2021/09/28 11:59:02;;;;;;;3.47;1.40;;;20.00;90.70;;;;;;6299999;22;20011;-78
2021/09/28 12:01:28;;;;;;;2.50;1.38;;;20.00;91.00;;;;;;6300069;22;20084;-78
2021/09/28 12:07:00;;;;;;;4.40;1.20;;;19.90;89.90;;;;;;6310184;22;20084;-77
2021/09/28 12:09:27;;;;;;;6.00;1.13;;;19.90;90.60;;;;;;6298517;22;20049;-78
2021/09/28 12:12:07;;;;;;;5.38;1.55;;;19.90;90.10;;;;;;6299538;22;20094;-77
2021/09/28 12:14:37;;;;;;;3.22;1.17;;;20.00;90.00;;;;;;6299237;22;20007;-77
2021/09/28 12:17:23;;;;;;;5.70;1.30;;;20.10;90.10;;;;;;6299688;22;20018;-78
2021/09/28 12:19:51;;;;;;;2.97;1.70;;;20.20;91.40;;;;;;6299594;22;20026;-79
2021/09/28 12:22:38;;;;;;;5.18;1.45;;;20.30;90.70;;;;;;6299110;22;20053;-78
2021/09/28 12:25:07;;;;;;;4.57;1.40;;;20.40;90.50;;;;;;6299252;22;20007;-78
2021/09/28 12:27:33;;;;;;;5.75;2.13;;;20.50;90.80;;;;;;6297956;22;20011;-79
2021/09/28 12:30:06;;;;;;;3.35;1.30;;;20.60;90.50;;;;;;6296113;22;20006;-79
2021/09/28 12:32:32;;;;;;;3.22;1.77;;;20.80;90.50;;;;;;6299622;22;20078;-79
2021/09/28 12:35:00;;;;;;;2.90;1.08;;;20.90;90.60;;;;;;6271191;22;20007;-76
2021/09/28 12:37:28;;;;;;;2.97;1.83;;;21.10;89.40;;;;;;6298584;22;20058;-77
2021/09/28 12:40:00;;;;;;;3.33;1.10;;;21.20;87.90;;;;;;6298735;22;20103;-77
2021/09/28 12:42:26;;;;;;;3.03;0.77;;;21.30;85.40;;;;;;6299082;22;20003;-78
2021/09/28 12:45:04;;;;;;;2.60;0.82;;;21.30;84.80;;;;;;6295918;22;20007;-78
2021/09/28 12:47:33;;;;;;;2.28;0.77;;;21.10;83.60;;;;;;6297535;22;19999;-78
2021/09/28 12:50:19;;;;;;;2.03;0.90;;;21.00;84.80;;;;;;6297643;22;20006;-77
2021/09/28 12:52:45;;;;;;;4.18;0.63;;;20.90;86.10;;;;;;6271162;22;20003;-78
2021/09/28 12:55:11;;;;;;;2.83;0.70;;;20.80;85.10;;;;;;6299608;22;20030;-78